sensor_id;sensor_type;location;lat;lon;timestamp;P1;durP1;ratioP1;P2;durP2;ratioP2
23288;SDS011;11813;50.834;4.280;2023-04-03T00:00:11;17.53;;;9.13;;
23288;SDS011;11813;50.834;4.280;2023-04-03T00:02:38;14.83;;;8.77;;
23288;SDS011;11813;50.834;4.280;2023-04-03T00:05:05;14.07;;;8.87;;
23288;SDS011;11813;50.834;4.280;2023-04-03T00:07:31;17.07;;;8.57;;
23288;SDS011;11813;50.834;4.280;2023-04-03T00:09:57;14.77;;;9.10;;
23288;SDS011;11813;50.834;4.280;2023-04-03T00:12:22;14.43;;;7.37;;
23288;SDS011;11813;50.834;4.280;2023-04-03T00:14:48;12.70;;;7.53;;
23288;SDS011;11813;50.834;4.280;2023-04-03T00:17:13;15.47;;;8.17;;
23288;SDS011;11813;50.834;4.280;2023-04-03T00:19:39;10.67;;;7.93;;
23288;SDS011;11813;50.834;4.280;2023-04-03T00:22:05;10.13;;;7.80;;
23288;SDS011;11813;50.834;4.280;2023-04-03T00:24:30;13.67;;;7.70;;
23288;SDS011;11813;50.834;4.280;2023-04-03T00:26:56;14.80;;;7.77;;
23288;SDS011;11813;50.834;4.280;2023-04-03T00:29:21;15.07;;;8.30;;
23288;SDS011;11813;50.834;4.280;2023-04-03T00:31:47;10.83;;;7.30;;
23288;SDS011;11813;50.834;4.280;2023-04-03T00:34:13;12.20;;;7.93;;
23288;SDS011;11813;50.834;4.280;2023-04-03T00:36:38;10.80;;;7.57;;
23288;SDS011;11813;50.834;4.280;2023-04-03T00:39:04;11.10;;;7.23;;
23288;SDS011;11813;50.834;4.280;2023-04-03T00:41:30;11.17;;;7.73;;
23288;SDS011;11813;50.834;4.280;2023-04-03T00:43:56;12.60;;;7.60;;
23288;SDS011;11813;50.834;4.280;2023-04-03T00:46:22;11.40;;;7.53;;
23288;SDS011;11813;50.834;4.280;2023-04-03T00:48:48;13.30;;;7.20;;
23288;SDS011;11813;50.834;4.280;2023-04-03T00:51:16;12.70;;;7.03;;
23288;SDS011;11813;50.834;4.280;2023-04-03T00:53:46;13.57;;;7.03;;
23288;SDS011;11813;50.834;4.280;2023-04-03T00:56:19;13.13;;;7.60;;
23288;SDS011;11813;50.834;4.280;2023-04-03T00:58:49;8.83;;;7.00;;
23288;SDS011;11813;50.834;4.280;2023-04-03T01:01:22;13.20;;;8.10;;
23288;SDS011;11813;50.834;4.280;2023-04-03T01:03:49;10.33;;;7.00;;
23288;SDS011;11813;50.834;4.280;2023-04-03T01:06:16;12.50;;;7.30;;
23288;SDS011;11813;50.834;4.280;2023-04-03T01:08:45;12.60;;;7.50;;
23288;SDS011;11813;50.834;4.280;2023-04-03T01:11:13;10.87;;;7.07;;
23288;SDS011;11813;50.834;4.280;2023-04-03T01:13:39;11.87;;;6.93;;
23288;SDS011;11813;50.834;4.280;2023-04-03T01:16:05;11.43;;;7.30;;
23288;SDS011;11813;50.834;4.280;2023-04-03T01:18:32;11.93;;;6.90;;
23288;SDS011;11813;50.834;4.280;2023-04-03T01:26:53;10.20;;;7.50;;
23288;SDS011;11813;50.834;4.280;2023-04-03T01:29:18;11.93;;;7.07;;
23288;SDS011;11813;50.834;4.280;2023-04-03T01:31:46;14.23;;;7.17;;
23288;SDS011;11813;50.834;4.280;2023-04-03T01:34:13;13.23;;;7.07;;
23288;SDS011;11813;50.834;4.280;2023-04-03T01:36:39;12.87;;;7.50;;
23288;SDS011;11813;50.834;4.280;2023-04-03T01:39:05;12.07;;;7.43;;
23288;SDS011;11813;50.834;4.280;2023-04-03T01:41:31;12.73;;;7.40;;
23288;SDS011;11813;50.834;4.280;2023-04-03T01:43:57;10.20;;;7.83;;
23288;SDS011;11813;50.834;4.280;2023-04-03T01:46:23;11.17;;;7.80;;
23288;SDS011;11813;50.834;4.280;2023-04-03T01:48:49;12.77;;;7.03;;
23288;SDS011;11813;50.834;4.280;2023-04-03T01:51:15;10.10;;;6.83;;
23288;SDS011;11813;50.834;4.280;2023-04-03T01:53:41;11.57;;;7.43;;
23288;SDS011;11813;50.834;4.280;2023-04-03T01:56:07;11.37;;;7.10;;
23288;SDS011;11813;50.834;4.280;2023-04-03T01:58:33;12.23;;;7.40;;
23288;SDS011;11813;50.834;4.280;2023-04-03T02:00:59;15.20;;;7.60;;
23288;SDS011;11813;50.834;4.280;2023-04-03T02:03:24;14.30;;;6.93;;
23288;SDS011;11813;50.834;4.280;2023-04-03T02:05:50;10.33;;;7.40;;
23288;SDS011;11813;50.834;4.280;2023-04-03T02:08:16;9.17;;;7.07;;
23288;SDS011;11813;50.834;4.280;2023-04-03T02:10:43;12.50;;;6.50;;
23288;SDS011;11813;50.834;4.280;2023-04-03T02:13:11;13.07;;;7.13;;
23288;SDS011;11813;50.834;4.280;2023-04-03T02:15:40;12.77;;;6.80;;
23288;SDS011;11813;50.834;4.280;2023-04-03T02:18:05;9.43;;;7.33;;
23288;SDS011;11813;50.834;4.280;2023-04-03T02:20:32;13.33;;;7.17;;
23288;SDS011;11813;50.834;4.280;2023-04-03T02:22:58;11.33;;;7.07;;
23288;SDS011;11813;50.834;4.280;2023-04-03T02:25:24;9.50;;;6.60;;
23288;SDS011;11813;50.834;4.280;2023-04-03T02:27:49;11.03;;;6.47;;
23288;SDS011;11813;50.834;4.280;2023-04-03T02:30:15;10.10;;;6.70;;
23288;SDS011;11813;50.834;4.280;2023-04-03T02:32:41;10.03;;;6.53;;
23288;SDS011;11813;50.834;4.280;2023-04-03T02:35:08;11.23;;;7.00;;
23288;SDS011;11813;50.834;4.280;2023-04-03T02:37:34;16.07;;;7.33;;
23288;SDS011;11813;50.834;4.280;2023-04-03T02:40:00;15.67;;;7.60;;
23288;SDS011;11813;50.834;4.280;2023-04-03T02:42:26;11.10;;;6.97;;
23288;SDS011;11813;50.834;4.280;2023-04-03T02:44:51;8.07;;;6.53;;
23288;SDS011;11813;50.834;4.280;2023-04-03T02:47:17;8.67;;;6.90;;
23288;SDS011;11813;50.834;4.280;2023-04-03T02:49:42;8.47;;;7.20;;
23288;SDS011;11813;50.834;4.280;2023-04-03T02:52:11;12.00;;;7.90;;
23288;SDS011;11813;50.834;4.280;2023-04-03T02:54:37;12.83;;;7.27;;
23288;SDS011;11813;50.834;4.280;2023-04-03T02:57:03;9.33;;;6.87;;
23288;SDS011;11813;50.834;4.280;2023-04-03T02:59:28;11.17;;;7.70;;
23288;SDS011;11813;50.834;4.280;2023-04-03T03:01:54;10.10;;;7.53;;
23288;SDS011;11813;50.834;4.280;2023-04-03T03:04:20;11.27;;;7.53;;
23288;SDS011;11813;50.834;4.280;2023-04-03T03:06:46;12.70;;;6.90;;
23288;SDS011;11813;50.834;4.280;2023-04-03T03:09:12;11.20;;;7.17;;
23288;SDS011;11813;50.834;4.280;2023-04-03T03:11:38;10.57;;;7.03;;
23288;SDS011;11813;50.834;4.280;2023-04-03T03:14:04;10.33;;;7.63;;
23288;SDS011;11813;50.834;4.280;2023-04-03T03:16:30;13.40;;;7.43;;
23288;SDS011;11813;50.834;4.280;2023-04-03T03:18:55;9.83;;;7.13;;
23288;SDS011;11813;50.834;4.280;2023-04-03T03:21:21;11.23;;;7.47;;
23288;SDS011;11813;50.834;4.280;2023-04-03T03:23:47;10.83;;;7.37;;
23288;SDS011;11813;50.834;4.280;2023-04-03T03:26:12;13.70;;;7.33;;
23288;SDS011;11813;50.834;4.280;2023-04-03T03:28:38;13.23;;;7.00;;
23288;SDS011;11813;50.834;4.280;2023-04-03T03:31:05;10.07;;;6.53;;
23288;SDS011;11813;50.834;4.280;2023-04-03T03:33:32;17.07;;;7.47;;
23288;SDS011;11813;50.834;4.280;2023-04-03T03:35:58;10.40;;;6.90;;
23288;SDS011;11813;50.834;4.280;2023-04-03T03:38:24;10.53;;;7.30;;
23288;SDS011;11813;50.834;4.280;2023-04-03T03:40:50;11.17;;;7.00;;
23288;SDS011;11813;50.834;4.280;2023-04-03T03:43:16;10.50;;;7.33;;
23288;SDS011;11813;50.834;4.280;2023-04-03T03:45:43;8.67;;;6.90;;
23288;SDS011;11813;50.834;4.280;2023-04-03T03:48:09;17.77;;;7.50;;
23288;SDS011;11813;50.834;4.280;2023-04-03T03:50:35;13.60;;;7.40;;
23288;SDS011;11813;50.834;4.280;2023-04-03T03:53:00;10.80;;;7.60;;
23288;SDS011;11813;50.834;4.280;2023-04-03T03:55:26;14.73;;;7.37;;
23288;SDS011;11813;50.834;4.280;2023-04-03T03:57:52;11.17;;;6.93;;
23288;SDS011;11813;50.834;4.280;2023-04-03T04:00:17;13.97;;;7.50;;
23288;SDS011;11813;50.834;4.280;2023-04-03T04:02:43;11.93;;;7.53;;
23288;SDS011;11813;50.834;4.280;2023-04-03T04:05:09;12.83;;;8.97;;
23288;SDS011;11813;50.834;4.280;2023-04-03T04:07:35;11.40;;;7.50;;
23288;SDS011;11813;50.834;4.280;2023-04-03T04:10:00;10.67;;;7.10;;
23288;SDS011;11813;50.834;4.280;2023-04-03T04:12:26;13.73;;;7.47;;
23288;SDS011;11813;50.834;4.280;2023-04-03T04:14:52;12.43;;;7.67;;
23288;SDS011;11813;50.834;4.280;2023-04-03T04:17:17;18.50;;;8.37;;
23288;SDS011;11813;50.834;4.280;2023-04-03T04:19:43;11.10;;;7.53;;
23288;SDS011;11813;50.834;4.280;2023-04-03T04:22:08;11.90;;;7.70;;
23288;SDS011;11813;50.834;4.280;2023-04-03T04:24:34;16.23;;;7.80;;
23288;SDS011;11813;50.834;4.280;2023-04-03T04:26:59;8.27;;;7.17;;
23288;SDS011;11813;50.834;4.280;2023-04-03T04:29:25;10.30;;;7.73;;
23288;SDS011;11813;50.834;4.280;2023-04-03T04:31:51;16.20;;;8.37;;
23288;SDS011;11813;50.834;4.280;2023-04-03T04:34:16;13.83;;;8.40;;
23288;SDS011;11813;50.834;4.280;2023-04-03T04:36:42;15.50;;;8.70;;
23288;SDS011;11813;50.834;4.280;2023-04-03T04:39:07;11.17;;;7.90;;
23288;SDS011;11813;50.834;4.280;2023-04-03T04:41:33;11.70;;;7.80;;
23288;SDS011;11813;50.834;4.280;2023-04-03T04:43:59;13.07;;;8.70;;
23288;SDS011;11813;50.834;4.280;2023-04-03T04:46:25;13.90;;;8.80;;
23288;SDS011;11813;50.834;4.280;2023-04-03T04:48:51;13.80;;;8.90;;
23288;SDS011;11813;50.834;4.280;2023-04-03T04:51:17;14.20;;;9.10;;
23288;SDS011;11813;50.834;4.280;2023-04-03T04:53:42;14.77;;;8.90;;
23288;SDS011;11813;50.834;4.280;2023-04-03T04:56:08;16.23;;;9.60;;
23288;SDS011;11813;50.834;4.280;2023-04-03T04:58:35;15.63;;;9.03;;
23288;SDS011;11813;50.834;4.280;2023-04-03T05:01:02;13.37;;;8.77;;
23288;SDS011;11813;50.834;4.280;2023-04-03T05:03:29;22.57;;;9.50;;
23288;SDS011;11813;50.834;4.280;2023-04-03T05:05:55;15.50;;;8.97;;
23288;SDS011;11813;50.834;4.280;2023-04-03T05:08:20;17.93;;;9.53;;
23288;SDS011;11813;50.834;4.280;2023-04-03T05:10:46;18.80;;;9.23;;
23288;SDS011;11813;50.834;4.280;2023-04-03T05:13:12;16.60;;;10.63;;
23288;SDS011;11813;50.834;4.280;2023-04-03T05:15:38;24.13;;;9.47;;
23288;SDS011;11813;50.834;4.280;2023-04-03T05:18:04;22.20;;;9.43;;
23288;SDS011;11813;50.834;4.280;2023-04-03T05:20:30;12.43;;;8.73;;
23288;SDS011;11813;50.834;4.280;2023-04-03T05:22:56;15.17;;;10.13;;
23288;SDS011;11813;50.834;4.280;2023-04-03T05:25:22;19.90;;;10.50;;
23288;SDS011;11813;50.834;4.280;2023-04-03T05:27:47;13.63;;;9.37;;
23288;SDS011;11813;50.834;4.280;2023-04-03T05:30:13;14.70;;;10.40;;
23288;SDS011;11813;50.834;4.280;2023-04-03T05:32:39;17.10;;;10.27;;
23288;SDS011;11813;50.834;4.280;2023-04-03T05:35:05;13.63;;;9.70;;
23288;SDS011;11813;50.834;4.280;2023-04-03T05:37:32;22.77;;;10.67;;
23288;SDS011;11813;50.834;4.280;2023-04-03T05:39:58;18.30;;;10.10;;
23288;SDS011;11813;50.834;4.280;2023-04-03T05:42:23;18.47;;;10.47;;
23288;SDS011;11813;50.834;4.280;2023-04-03T05:44:49;20.40;;;10.57;;
23288;SDS011;11813;50.834;4.280;2023-04-03T05:47:15;20.23;;;11.37;;
23288;SDS011;11813;50.834;4.280;2023-04-03T05:49:41;16.80;;;10.77;;
23288;SDS011;11813;50.834;4.280;2023-04-03T05:52:12;17.47;;;11.47;;
23288;SDS011;11813;50.834;4.280;2023-04-03T05:54:46;19.37;;;10.30;;
23288;SDS011;11813;50.834;4.280;2023-04-03T05:57:13;14.93;;;10.17;;
23288;SDS011;11813;50.834;4.280;2023-04-03T05:59:40;18.83;;;10.50;;
23288;SDS011;11813;50.834;4.280;2023-04-03T06:02:09;17.87;;;10.67;;
23288;SDS011;11813;50.834;4.280;2023-04-03T06:04:37;19.97;;;11.83;;
23288;SDS011;11813;50.834;4.280;2023-04-03T06:07:03;17.93;;;10.77;;
23288;SDS011;11813;50.834;4.280;2023-04-03T06:09:28;17.40;;;11.23;;
23288;SDS011;11813;50.834;4.280;2023-04-03T06:11:54;15.47;;;10.20;;
23288;SDS011;11813;50.834;4.280;2023-04-03T06:14:21;18.50;;;10.67;;
23288;SDS011;11813;50.834;4.280;2023-04-03T06:16:46;16.90;;;10.40;;
23288;SDS011;11813;50.834;4.280;2023-04-03T06:19:12;15.63;;;11.37;;
23288;SDS011;11813;50.834;4.280;2023-04-03T06:21:38;17.30;;;10.33;;
23288;SDS011;11813;50.834;4.280;2023-04-03T06:24:04;17.50;;;11.70;;
23288;SDS011;11813;50.834;4.280;2023-04-03T06:26:31;18.37;;;11.20;;
23288;SDS011;11813;50.834;4.280;2023-04-03T06:28:57;16.40;;;10.87;;
23288;SDS011;11813;50.834;4.280;2023-04-03T06:31:22;21.00;;;12.73;;
23288;SDS011;11813;50.834;4.280;2023-04-03T06:33:48;21.33;;;11.47;;
23288;SDS011;11813;50.834;4.280;2023-04-03T06:36:14;24.13;;;12.37;;
23288;SDS011;11813;50.834;4.280;2023-04-03T06:38:44;20.97;;;12.07;;
23288;SDS011;11813;50.834;4.280;2023-04-03T06:41:10;22.13;;;11.93;;
23288;SDS011;11813;50.834;4.280;2023-04-03T06:43:36;19.67;;;11.97;;
23288;SDS011;11813;50.834;4.280;2023-04-03T06:46:02;20.00;;;11.30;;
23288;SDS011;11813;50.834;4.280;2023-04-03T06:48:27;18.13;;;11.90;;
23288;SDS011;11813;50.834;4.280;2023-04-03T06:50:53;19.33;;;11.30;;
23288;SDS011;11813;50.834;4.280;2023-04-03T06:53:19;18.93;;;11.73;;
23288;SDS011;11813;50.834;4.280;2023-04-03T06:55:45;24.40;;;12.53;;
23288;SDS011;11813;50.834;4.280;2023-04-03T06:58:12;24.77;;;13.57;;
23288;SDS011;11813;50.834;4.280;2023-04-03T07:00:38;24.20;;;12.33;;
23288;SDS011;11813;50.834;4.280;2023-04-03T07:03:04;21.03;;;12.53;;
23288;SDS011;11813;50.834;4.280;2023-04-03T07:05:30;23.87;;;11.60;;
23288;SDS011;11813;50.834;4.280;2023-04-03T07:07:56;17.97;;;12.50;;
23288;SDS011;11813;50.834;4.280;2023-04-03T07:10:21;18.37;;;12.57;;
23288;SDS011;11813;50.834;4.280;2023-04-03T07:12:48;20.20;;;12.40;;
23288;SDS011;11813;50.834;4.280;2023-04-03T07:15:13;20.17;;;12.43;;
23288;SDS011;11813;50.834;4.280;2023-04-03T07:17:39;17.87;;;12.20;;
23288;SDS011;11813;50.834;4.280;2023-04-03T07:20:05;19.77;;;12.60;;
23288;SDS011;11813;50.834;4.280;2023-04-03T07:22:32;21.53;;;12.97;;
23288;SDS011;11813;50.834;4.280;2023-04-03T07:24:57;20.60;;;12.20;;
23288;SDS011;11813;50.834;4.280;2023-04-03T07:27:24;18.67;;;12.90;;
23288;SDS011;11813;50.834;4.280;2023-04-03T07:29:50;21.13;;;12.30;;
23288;SDS011;11813;50.834;4.280;2023-04-03T07:32:15;18.27;;;12.63;;
23288;SDS011;11813;50.834;4.280;2023-04-03T07:34:41;16.30;;;11.67;;
23288;SDS011;11813;50.834;4.280;2023-04-03T07:37:07;22.70;;;11.17;;
23288;SDS011;11813;50.834;4.280;2023-04-03T07:39:34;16.83;;;11.17;;
23288;SDS011;11813;50.834;4.280;2023-04-03T07:41:59;18.13;;;11.83;;
23288;SDS011;11813;50.834;4.280;2023-04-03T07:44:25;17.73;;;11.57;;
23288;SDS011;11813;50.834;4.280;2023-04-03T07:46:51;17.13;;;11.20;;
23288;SDS011;11813;50.834;4.280;2023-04-03T07:49:17;13.87;;;11.00;;
23288;SDS011;11813;50.834;4.280;2023-04-03T07:51:48;16.63;;;10.93;;
23288;SDS011;11813;50.834;4.280;2023-04-03T07:54:14;13.50;;;10.30;;
23288;SDS011;11813;50.834;4.280;2023-04-03T07:56:40;13.50;;;10.00;;
23288;SDS011;11813;50.834;4.280;2023-04-03T07:59:07;14.97;;;10.70;;
23288;SDS011;11813;50.834;4.280;2023-04-03T08:01:33;16.23;;;11.30;;
23288;SDS011;11813;50.834;4.280;2023-04-03T08:03:59;14.33;;;9.80;;
23288;SDS011;11813;50.834;4.280;2023-04-03T08:06:26;19.53;;;10.23;;
23288;SDS011;11813;50.834;4.280;2023-04-03T08:08:51;17.47;;;10.03;;
23288;SDS011;11813;50.834;4.280;2023-04-03T08:11:17;19.33;;;9.70;;
23288;SDS011;11813;50.834;4.280;2023-04-03T08:13:43;17.17;;;9.03;;
23288;SDS011;11813;50.834;4.280;2023-04-03T08:16:14;12.27;;;9.57;;
23288;SDS011;11813;50.834;4.280;2023-04-03T08:18:42;18.07;;;9.77;;
23288;SDS011;11813;50.834;4.280;2023-04-03T08:21:08;19.30;;;9.97;;
23288;SDS011;11813;50.834;4.280;2023-04-03T08:23:35;14.13;;;9.40;;
23288;SDS011;11813;50.834;4.280;2023-04-03T08:26:14;14.53;;;9.47;;
23288;SDS011;11813;50.834;4.280;2023-04-03T08:28:41;12.87;;;8.57;;
23288;SDS011;11813;50.834;4.280;2023-04-03T08:31:08;14.77;;;9.13;;
23288;SDS011;11813;50.834;4.280;2023-04-03T08:33:40;10.03;;;8.80;;
23288;SDS011;11813;50.834;4.280;2023-04-03T08:36:06;12.83;;;8.73;;
23288;SDS011;11813;50.834;4.280;2023-04-03T08:38:40;13.57;;;8.33;;
23288;SDS011;11813;50.834;4.280;2023-04-03T08:43:46;12.20;;;9.40;;
23288;SDS011;11813;50.834;4.280;2023-04-03T08:46:54;16.67;;;9.37;;
23288;SDS011;11813;50.834;4.280;2023-04-03T08:49:42;16.97;;;9.57;;
23288;SDS011;11813;50.834;4.280;2023-04-03T08:52:13;14.20;;;9.87;;
23288;SDS011;11813;50.834;4.280;2023-04-03T09:00:28;14.67;;;8.50;;
23288;SDS011;11813;50.834;4.280;2023-04-03T09:02:59;12.73;;;7.73;;
23288;SDS011;11813;50.834;4.280;2023-04-03T09:10:47;8.40;;;7.47;;
23288;SDS011;11813;50.834;4.280;2023-04-03T09:16:17;12.53;;;8.10;;
23288;SDS011;11813;50.834;4.280;2023-04-03T09:20:08;15.53;;;8.00;;
23288;SDS011;11813;50.834;4.280;2023-04-03T09:22:17;8.60;;;7.13;;
23288;SDS011;11813;50.834;4.280;2023-04-03T09:24:47;11.60;;;7.00;;
23288;SDS011;11813;50.834;4.280;2023-04-03T09:27:34;10.30;;;6.20;;
23288;SDS011;11813;50.834;4.280;2023-04-03T09:30:00;13.87;;;5.43;;
23288;SDS011;11813;50.834;4.280;2023-04-03T09:32:31;6.93;;;5.80;;
23288;SDS011;11813;50.834;4.280;2023-04-03T09:35:03;9.90;;;5.77;;
23288;SDS011;11813;50.834;4.280;2023-04-03T09:37:41;9.07;;;5.87;;
23288;SDS011;11813;50.834;4.280;2023-04-03T09:40:27;11.77;;;4.97;;
23288;SDS011;11813;50.834;4.280;2023-04-03T09:45:50;7.70;;;4.67;;
23288;SDS011;11813;50.834;4.280;2023-04-03T09:48:18;5.37;;;4.13;;
23288;SDS011;11813;50.834;4.280;2023-04-03T09:55:57;7.97;;;4.30;;
23288;SDS011;11813;50.834;4.280;2023-04-03T09:58:25;10.83;;;4.13;;
23288;SDS011;11813;50.834;4.280;2023-04-03T10:00:56;10.10;;;4.43;;
23288;SDS011;11813;50.834;4.280;2023-04-03T10:03:25;8.03;;;3.93;;
23288;SDS011;11813;50.834;4.280;2023-04-03T10:05:54;8.57;;;4.40;;
23288;SDS011;11813;50.834;4.280;2023-04-03T10:13:55;6.40;;;3.90;;
23288;SDS011;11813;50.834;4.280;2023-04-03T10:16:25;8.97;;;3.53;;
23288;SDS011;11813;50.834;4.280;2023-04-03T10:21:43;8.70;;;3.47;;
23288;SDS011;11813;50.834;4.280;2023-04-03T10:24:21;7.43;;;3.73;;
23288;SDS011;11813;50.834;4.280;2023-04-03T10:29:49;10.60;;;3.70;;
23288;SDS011;11813;50.834;4.280;2023-04-03T10:32:54;4.77;;;2.97;;
23288;SDS011;11813;50.834;4.280;2023-04-03T10:35:44;4.43;;;2.97;;
23288;SDS011;11813;50.834;4.280;2023-04-03T10:38:46;5.00;;;3.10;;
23288;SDS011;11813;50.834;4.280;2023-04-03T10:41:31;4.60;;;2.67;;
23288;SDS011;11813;50.834;4.280;2023-04-03T10:44:08;5.53;;;2.73;;
23288;SDS011;11813;50.834;4.280;2023-04-03T10:47:05;3.93;;;2.50;;
23288;SDS011;11813;50.834;4.280;2023-04-03T10:49:41;4.93;;;2.67;;
23288;SDS011;11813;50.834;4.280;2023-04-03T10:52:17;7.53;;;3.03;;
23288;SDS011;11813;50.834;4.280;2023-04-03T10:57:59;3.60;;;2.07;;
23288;SDS011;11813;50.834;4.280;2023-04-03T11:00:35;4.50;;;2.43;;
23288;SDS011;11813;50.834;4.280;2023-04-03T11:03:11;8.60;;;2.53;;
23288;SDS011;11813;50.834;4.280;2023-04-03T11:05:59;3.37;;;2.00;;
23288;SDS011;11813;50.834;4.280;2023-04-03T11:11:30;3.50;;;2.37;;
23288;SDS011;11813;50.834;4.280;2023-04-03T11:14:00;5.57;;;2.40;;
23288;SDS011;11813;50.834;4.280;2023-04-03T11:16:33;5.30;;;2.37;;
23288;SDS011;11813;50.834;4.280;2023-04-03T11:19:17;4.87;;;2.13;;
23288;SDS011;11813;50.834;4.280;2023-04-03T11:21:53;12.87;;;2.87;;
23288;SDS011;11813;50.834;4.280;2023-04-03T11:24:27;2.93;;;1.80;;
23288;SDS011;11813;50.834;4.280;2023-04-03T11:26:56;3.33;;;1.90;;
23288;SDS011;11813;50.834;4.280;2023-04-03T11:29:26;5.27;;;2.13;;
23288;SDS011;11813;50.834;4.280;2023-04-03T11:32:06;3.57;;;2.03;;
23288;SDS011;11813;50.834;4.280;2023-04-03T11:34:35;3.17;;;2.03;;
23288;SDS011;11813;50.834;4.280;2023-04-03T11:37:51;2.80;;;2.07;;
23288;SDS011;11813;50.834;4.280;2023-04-03T11:42:45;3.70;;;2.23;;
23288;SDS011;11813;50.834;4.280;2023-04-03T11:47:48;5.30;;;2.40;;
23288;SDS011;11813;50.834;4.280;2023-04-03T11:50:30;4.27;;;2.40;;
23288;SDS011;11813;50.834;4.280;2023-04-03T11:53:00;6.60;;;2.47;;
23288;SDS011;11813;50.834;4.280;2023-04-03T12:16:29;3.60;;;2.10;;
23288;SDS011;11813;50.834;4.280;2023-04-03T12:18:59;5.10;;;2.50;;
23288;SDS011;11813;50.834;4.280;2023-04-03T12:48:17;6.17;;;2.10;;
23288;SDS011;11813;50.834;4.280;2023-04-03T12:50:47;3.63;;;2.00;;
23288;SDS011;11813;50.834;4.280;2023-04-03T12:53:48;3.97;;;1.80;;
23288;SDS011;11813;50.834;4.280;2023-04-03T12:56:27;4.57;;;2.10;;
23288;SDS011;11813;50.834;4.280;2023-04-03T12:58:55;3.50;;;2.13;;
23288;SDS011;11813;50.834;4.280;2023-04-03T13:01:38;4.20;;;2.10;;
23288;SDS011;11813;50.834;4.280;2023-04-03T13:04:04;3.77;;;1.80;;
23288;SDS011;11813;50.834;4.280;2023-04-03T13:06:32;5.53;;;2.00;;
23288;SDS011;11813;50.834;4.280;2023-04-03T13:09:04;1.83;;;1.60;;
23288;SDS011;11813;50.834;4.280;2023-04-03T13:11:32;3.47;;;1.73;;
23288;SDS011;11813;50.834;4.280;2023-04-03T13:14:02;142.03;;;12.50;;
23288;SDS011;11813;50.834;4.280;2023-04-03T13:16:31;4.90;;;1.87;;
23288;SDS011;11813;50.834;4.280;2023-04-03T13:18:58;4.37;;;2.43;;
23288;SDS011;11813;50.834;4.280;2023-04-03T13:21:25;3.43;;;1.70;;
23288;SDS011;11813;50.834;4.280;2023-04-03T13:23:54;3.37;;;1.50;;
23288;SDS011;11813;50.834;4.280;2023-04-03T13:26:23;2.87;;;1.80;;
23288;SDS011;11813;50.834;4.280;2023-04-03T13:28:51;6.17;;;2.37;;
23288;SDS011;11813;50.834;4.280;2023-04-03T13:31:30;5.40;;;1.80;;
23288;SDS011;11813;50.834;4.280;2023-04-03T13:34:04;2.80;;;1.60;;
23288;SDS011;11813;50.834;4.280;2023-04-03T13:36:34;3.37;;;1.87;;
23288;SDS011;11813;50.834;4.280;2023-04-03T13:39:17;3.30;;;1.75;;
23288;SDS011;11813;50.834;4.280;2023-04-03T13:41:49;5.00;;;1.67;;
23288;SDS011;11813;50.834;4.280;2023-04-03T13:46:48;3.47;;;1.90;;
23288;SDS011;11813;50.834;4.280;2023-04-03T13:49:32;4.57;;;2.30;;
23288;SDS011;11813;50.834;4.280;2023-04-03T13:52:21;3.97;;;2.10;;
23288;SDS011;11813;50.834;4.280;2023-04-03T13:54:47;3.87;;;2.00;;
23288;SDS011;11813;50.834;4.280;2023-04-03T13:57:17;2.90;;;1.87;;
23288;SDS011;11813;50.834;4.280;2023-04-03T13:59:43;4.87;;;2.43;;
23288;SDS011;11813;50.834;4.280;2023-04-03T14:02:21;3.70;;;2.10;;
23288;SDS011;11813;50.834;4.280;2023-04-03T14:04:59;2.70;;;1.70;;
23288;SDS011;11813;50.834;4.280;2023-04-03T14:07:27;3.40;;;1.87;;
23288;SDS011;11813;50.834;4.280;2023-04-03T14:09:54;2.43;;;1.97;;
23288;SDS011;11813;50.834;4.280;2023-04-03T14:12:27;1.87;;;1.70;;
23288;SDS011;11813;50.834;4.280;2023-04-03T14:14:56;5.40;;;2.33;;
23288;SDS011;11813;50.834;4.280;2023-04-03T14:17:24;4.13;;;2.10;;
23288;SDS011;11813;50.834;4.280;2023-04-03T14:19:52;5.87;;;2.10;;
23288;SDS011;11813;50.834;4.280;2023-04-03T14:22:20;4.13;;;2.37;;
23288;SDS011;11813;50.834;4.280;2023-04-03T14:24:51;3.57;;;1.90;;
23288;SDS011;11813;50.834;4.280;2023-04-03T14:27:21;3.03;;;1.83;;
23288;SDS011;11813;50.834;4.280;2023-04-03T14:29:52;4.00;;;1.93;;
23288;SDS011;11813;50.834;4.280;2023-04-03T14:32:19;5.65;;;2.83;;
23288;SDS011;11813;50.834;4.280;2023-04-03T14:34:46;6.90;;;2.27;;
23288;SDS011;11813;50.834;4.280;2023-04-03T14:37:14;4.20;;;1.60;;
23288;SDS011;11813;50.834;4.280;2023-04-03T14:39:42;3.37;;;1.80;;
23288;SDS011;11813;50.834;4.280;2023-04-03T14:42:12;2.57;;;2.07;;
23288;SDS011;11813;50.834;4.280;2023-04-03T14:44:40;4.90;;;2.00;;
23288;SDS011;11813;50.834;4.280;2023-04-03T14:47:13;3.67;;;1.87;;
23288;SDS011;11813;50.834;4.280;2023-04-03T14:49:41;3.20;;;1.87;;
23288;SDS011;11813;50.834;4.280;2023-04-03T14:52:10;3.13;;;2.10;;
23288;SDS011;11813;50.834;4.280;2023-04-03T14:54:49;4.13;;;2.00;;
23288;SDS011;11813;50.834;4.280;2023-04-03T14:57:15;4.50;;;2.00;;
23288;SDS011;11813;50.834;4.280;2023-04-03T14:59:42;3.63;;;1.83;;
23288;SDS011;11813;50.834;4.280;2023-04-03T15:02:18;5.33;;;1.90;;
23288;SDS011;11813;50.834;4.280;2023-04-03T15:04:56;4.17;;;2.20;;
23288;SDS011;11813;50.834;4.280;2023-04-03T15:07:22;4.50;;;2.20;;
23288;SDS011;11813;50.834;4.280;2023-04-03T15:09:50;10.60;;;2.40;;
23288;SDS011;11813;50.834;4.280;2023-04-03T15:12:15;3.00;;;2.00;;
23288;SDS011;11813;50.834;4.280;2023-04-03T15:14:41;2.67;;;2.10;;
23288;SDS011;11813;50.834;4.280;2023-04-03T15:17:08;3.57;;;2.00;;
23288;SDS011;11813;50.834;4.280;2023-04-03T15:19:40;3.63;;;1.83;;
23288;SDS011;11813;50.834;4.280;2023-04-03T15:22:06;4.60;;;2.27;;
23288;SDS011;11813;50.834;4.280;2023-04-03T15:24:34;2.97;;;2.10;;
23288;SDS011;11813;50.834;4.280;2023-04-03T15:27:00;2.23;;;1.57;;
23288;SDS011;11813;50.834;4.280;2023-04-03T15:29:26;6.07;;;2.03;;
23288;SDS011;11813;50.834;4.280;2023-04-03T15:31:52;3.33;;;1.95;;
23288;SDS011;11813;50.834;4.280;2023-04-03T15:34:18;7.10;;;2.30;;
23288;SDS011;11813;50.834;4.280;2023-04-03T15:36:46;2.47;;;1.93;;
23288;SDS011;11813;50.834;4.280;2023-04-03T15:39:12;3.90;;;1.77;;
23288;SDS011;11813;50.834;4.280;2023-04-03T15:41:37;2.83;;;1.60;;
23288;SDS011;11813;50.834;4.280;2023-04-03T15:44:03;6.27;;;1.77;;
23288;SDS011;11813;50.834;4.280;2023-04-03T15:46:28;3.10;;;1.80;;
23288;SDS011;11813;50.834;4.280;2023-04-03T15:48:54;2.33;;;2.10;;
23288;SDS011;11813;50.834;4.280;2023-04-03T15:51:20;3.45;;;1.83;;
23288;SDS011;11813;50.834;4.280;2023-04-03T15:53:46;6.93;;;4.50;;
23288;SDS011;11813;50.834;4.280;2023-04-03T15:56:11;5.17;;;2.10;;
23288;SDS011;11813;50.834;4.280;2023-04-03T15:58:37;3.40;;;1.70;;
23288;SDS011;11813;50.834;4.280;2023-04-03T16:01:03;5.37;;;2.57;;
23288;SDS011;11813;50.834;4.280;2023-04-03T16:03:28;4.87;;;1.87;;
23288;SDS011;11813;50.834;4.280;2023-04-03T16:05:54;7.00;;;2.20;;
23288;SDS011;11813;50.834;4.280;2023-04-03T16:08:20;3.30;;;2.37;;
23288;SDS011;11813;50.834;4.280;2023-04-03T16:10:46;2.60;;;2.17;;
23288;SDS011;11813;50.834;4.280;2023-04-03T16:13:12;3.72;;;1.88;;
23288;SDS011;11813;50.834;4.280;2023-04-03T16:15:38;7.33;;;2.00;;
23288;SDS011;11813;50.834;4.280;2023-04-03T16:18:04;5.68;;;2.28;;
23288;SDS011;11813;50.834;4.280;2023-04-03T16:20:30;3.58;;;2.60;;
23288;SDS011;11813;50.834;4.280;2023-04-03T16:22:57;3.70;;;2.20;;
23288;SDS011;11813;50.834;4.280;2023-04-03T16:25:24;4.85;;;2.08;;
23288;SDS011;11813;50.834;4.280;2023-04-03T16:27:50;3.78;;;1.90;;
23288;SDS011;11813;50.834;4.280;2023-04-03T16:30:15;5.65;;;2.20;;